createdAt,value
2018-07-30T00:01:58.572Z,3.33
2018-07-30T00:04:27.452Z,3.17
2018-07-30T00:06:56.354Z,2.93
2018-07-30T00:09:25.230Z,3.30
2018-07-30T00:11:54.388Z,2.67
2018-07-30T00:14:23.261Z,2.80
2018-07-30T00:16:52.246Z,2.73
2018-07-30T00:19:21.284Z,3.37
2018-07-30T00:21:50.160Z,2.40
2018-07-30T00:24:19.058Z,3.30
2018-07-30T00:26:47.918Z,2.90
2018-07-30T00:29:16.927Z,2.90
2018-07-30T00:31:45.800Z,3.27
2018-07-30T00:34:14.968Z,3.43
2018-07-30T00:36:43.832Z,3.00
2018-07-30T00:39:13.010Z,2.90
2018-07-30T00:41:42.086Z,3.50
2018-07-30T00:44:11.045Z,2.87
2018-07-30T00:46:40.154Z,3.03
2018-07-30T00:49:09.028Z,2.70
2018-07-30T00:51:38.013Z,2.87
2018-07-30T00:54:06.900Z,2.77
2018-07-30T00:56:35.764Z,3.80
2018-07-30T00:59:04.655Z,3.33
2018-07-30T01:01:33.620Z,2.93
2018-07-30T01:04:02.578Z,2.70
2018-07-30T01:06:31.595Z,2.87
2018-07-30T01:09:00.940Z,3.20
2018-07-30T01:11:29.817Z,3.03
2018-07-30T01:13:58.698Z,3.07
2018-07-30T01:16:27.566Z,3.03
2018-07-30T01:18:56.527Z,3.07
2018-07-30T01:21:25.630Z,2.80
2018-07-30T01:23:54.544Z,3.23
2018-07-30T01:26:27.599Z,3.07
2018-07-30T01:28:57.586Z,3.00
2018-07-30T01:31:26.490Z,3.73
2018-07-30T01:33:55.525Z,3.23
2018-07-30T01:36:24.518Z,3.73
2018-07-30T01:38:53.404Z,3.97
2018-07-30T01:41:22.276Z,4.07
2018-07-30T01:43:51.146Z,4.20
2018-07-30T01:46:20.081Z,4.80
2018-07-30T01:48:54.805Z,3.80
2018-07-30T01:51:29.463Z,4.03
2018-07-30T01:53:58.424Z,3.67
2018-07-30T01:56:27.300Z,2.97
2018-07-30T01:58:56.220Z,2.80
2018-07-30T02:01:25.106Z,3.23
2018-07-30T02:03:54.094Z,3.77
2018-07-30T02:06:24.005Z,3.30
2018-07-30T02:08:54.224Z,2.97
2018-07-30T02:11:23.103Z,3.40
2018-07-30T02:13:52.302Z,3.67
2018-07-30T02:16:21.408Z,3.23
2018-07-30T02:18:50.319Z,3.60
2018-07-30T02:21:19.251Z,3.07
2018-07-30T02:23:48.190Z,3.43
2018-07-30T02:26:17.083Z,3.13
2018-07-30T02:28:45.987Z,2.90
2018-07-30T02:31:14.904Z,3.13
2018-07-30T02:33:43.835Z,3.50
2018-07-30T02:36:12.746Z,3.77
2018-07-30T02:38:41.617Z,3.30
2018-07-30T02:41:10.553Z,2.77
2018-07-30T02:43:39.521Z,3.50
2018-07-30T02:46:08.428Z,3.10
2018-07-30T02:48:37.439Z,3.70
2018-07-30T02:51:06.409Z,3.37
2018-07-30T02:53:35.553Z,3.50
2018-07-30T02:56:04.435Z,3.07
2018-07-30T02:58:33.291Z,2.90
2018-07-30T03:01:02.165Z,3.17
2018-07-30T03:03:31.070Z,3.10
2018-07-30T03:05:59.944Z,3.13
2018-07-30T03:08:28.828Z,3.70
2018-07-30T03:10:57.700Z,2.93
2018-07-30T03:13:26.591Z,3.37
2018-07-30T03:15:55.517Z,3.93
2018-07-30T03:18:24.459Z,3.60
2018-07-30T03:20:53.379Z,3.30
2018-07-30T03:23:22.293Z,3.53
2018-07-30T03:25:51.204Z,3.40
2018-07-30T03:28:20.169Z,3.53
2018-07-30T03:30:49.070Z,3.30
2018-07-30T03:33:17.982Z,3.20
2018-07-30T03:35:47.054Z,3.83
2018-07-30T03:38:16.000Z,4.00
2018-07-30T03:40:44.875Z,3.17
2018-07-30T03:43:13.921Z,3.43
2018-07-30T03:45:42.819Z,3.83
2018-07-30T03:48:11.694Z,3.37
2018-07-30T03:50:47.179Z,3.80
2018-07-30T03:53:16.052Z,3.20
2018-07-30T03:55:45.030Z,3.37
2018-07-30T03:58:13.912Z,3.50
2018-07-30T04:00:42.838Z,3.20
2018-07-30T04:03:11.711Z,3.47
2018-07-30T04:05:40.752Z,3.63
2018-07-30T04:08:09.756Z,3.47
2018-07-30T04:10:38.678Z,3.30
2018-07-30T04:13:07.610Z,3.00
2018-07-30T04:15:36.534Z,3.63
2018-07-30T04:18:05.566Z,3.13
2018-07-30T04:20:34.477Z,3.33
2018-07-30T04:23:03.333Z,3.23
2018-07-30T04:25:32.439Z,3.60
2018-07-30T04:28:01.332Z,2.87
2018-07-30T04:30:30.238Z,3.37
2018-07-30T04:32:59.075Z,3.37
2018-07-30T04:35:28.111Z,3.47
2018-07-30T04:37:57.048Z,3.57
2018-07-30T04:40:26.007Z,3.40
2018-07-30T04:42:54.891Z,3.80
2018-07-30T04:45:23.795Z,3.67
2018-07-30T04:47:52.679Z,3.20
2018-07-30T04:50:21.564Z,3.80
2018-07-30T04:52:50.474Z,3.53
2018-07-30T04:55:19.441Z,3.80
2018-07-30T04:57:53.861Z,3.13
2018-07-30T05:00:28.288Z,2.93
2018-07-30T05:02:57.184Z,3.13
2018-07-30T05:05:26.132Z,3.97
2018-07-30T05:07:55.020Z,3.70
2018-07-30T05:10:23.912Z,3.13
2018-07-30T05:12:52.782Z,3.47
2018-07-30T05:15:21.747Z,4.27
2018-07-30T05:17:50.623Z,3.60
2018-07-30T05:20:19.518Z,3.53
2018-07-30T05:22:48.390Z,3.40
2018-07-30T05:25:17.282Z,3.67
2018-07-30T05:27:46.153Z,3.67
2018-07-30T05:30:15.053Z,4.10
2018-07-30T05:32:43.982Z,3.43
2018-07-30T05:35:12.852Z,3.70
2018-07-30T05:37:41.887Z,3.87
2018-07-30T05:40:10.822Z,3.33
2018-07-30T05:42:39.757Z,3.43
2018-07-30T05:45:08.664Z,3.60
2018-07-30T05:47:37.538Z,3.90
2018-07-30T05:50:06.569Z,3.90
2018-07-30T05:52:35.442Z,4.13
2018-07-30T05:55:04.372Z,3.43
2018-07-30T05:57:33.349Z,3.80
2018-07-30T06:00:02.263Z,3.60
2018-07-30T06:02:31.204Z,3.93
2018-07-30T06:05:00.272Z,3.30
2018-07-30T06:07:29.120Z,3.57
2018-07-30T06:09:58.009Z,3.10
2018-07-30T06:12:27.216Z,3.93
2018-07-30T06:14:56.156Z,3.80
2018-07-30T06:17:25.088Z,4.50
2018-07-30T06:19:53.962Z,4.07
2018-07-30T06:22:23.017Z,4.23
2018-07-30T06:24:52.000Z,4.17
2018-07-30T06:27:21.138Z,4.87
2018-07-30T06:29:50.100Z,3.43
2018-07-30T06:32:19.059Z,4.07
2018-07-30T06:34:48.104Z,4.07
2018-07-30T06:37:17.214Z,3.73
2018-07-30T06:39:46.301Z,4.30
2018-07-30T06:42:15.282Z,4.53
2018-07-30T06:44:44.272Z,3.97
2018-07-30T06:47:13.296Z,4.70
2018-07-30T06:49:42.543Z,4.07
2018-07-30T06:52:11.539Z,3.87
2018-07-30T06:54:40.456Z,4.47
2018-07-30T06:57:09.352Z,3.90
2018-07-30T06:59:38.314Z,3.90
2018-07-30T07:02:07.185Z,4.70
2018-07-30T07:04:36.050Z,4.33
2018-07-30T07:07:04.936Z,4.50
2018-07-30T07:09:33.909Z,4.27
2018-07-30T07:12:02.804Z,3.50
2018-07-30T07:14:31.685Z,3.50
2018-07-30T07:17:00.571Z,3.37
2018-07-30T07:19:34.958Z,4.40
2018-07-30T07:22:03.934Z,3.40
2018-07-30T07:24:32.902Z,3.20
2018-07-30T07:27:01.791Z,3.43
2018-07-30T07:29:30.867Z,3.33
2018-07-30T07:31:59.759Z,3.43
2018-07-30T07:34:28.658Z,3.37
2018-07-30T07:36:57.535Z,2.87
2018-07-30T07:39:26.523Z,3.03
2018-07-30T07:41:55.419Z,3.60
2018-07-30T07:44:24.473Z,3.10
2018-07-30T07:46:53.503Z,3.40
2018-07-30T07:49:22.508Z,3.23
2018-07-30T07:51:51.587Z,3.97
2018-07-30T07:54:20.596Z,3.40
2018-07-30T07:56:49.438Z,3.60
2018-07-30T07:59:18.348Z,4.40
2018-07-30T08:01:47.371Z,4.10
2018-07-30T08:04:16.367Z,3.60
2018-07-30T08:06:45.533Z,3.63
2018-07-30T08:09:14.444Z,3.57
2018-07-30T08:11:43.418Z,4.17
2018-07-30T08:14:12.332Z,3.87
2018-07-30T08:16:41.347Z,4.10
2018-07-30T08:19:10.266Z,3.90
2018-07-30T08:21:39.286Z,3.20
2018-07-30T08:24:08.254Z,3.40
2018-07-30T08:26:37.240Z,4.10
2018-07-30T08:29:06.314Z,3.90
2018-07-30T08:31:35.927Z,3.60
2018-07-30T08:34:04.921Z,3.80
2018-07-30T08:36:33.915Z,3.67
2018-07-30T08:39:02.974Z,3.80
2018-07-30T08:41:31.889Z,3.83
2018-07-30T08:44:00.757Z,3.97
2018-07-30T08:46:29.757Z,3.70
2018-07-30T08:48:58.732Z,4.00
2018-07-30T08:51:27.646Z,4.30
2018-07-30T08:53:56.578Z,3.20
2018-07-30T08:56:25.537Z,3.03
2018-07-30T08:58:54.488Z,3.90
2018-07-30T09:01:23.402Z,3.50
2018-07-30T09:03:52.628Z,3.87
2018-07-30T09:06:21.600Z,3.80
2018-07-30T09:08:50.586Z,3.87
2018-07-30T09:11:19.556Z,4.47
2018-07-30T09:13:48.465Z,3.57
2018-07-30T09:16:24.006Z,3.80
2018-07-30T09:18:52.987Z,3.90
2018-07-30T09:21:21.862Z,4.27
2018-07-30T09:23:50.800Z,3.87
2018-07-30T09:26:19.770Z,3.40
2018-07-30T09:28:48.742Z,3.73
2018-07-30T09:31:17.682Z,3.37
2018-07-30T09:33:46.598Z,3.50
2018-07-30T09:36:20.580Z,3.40
2018-07-30T09:38:49.501Z,2.90
2018-07-30T09:41:18.818Z,3.60
2018-07-30T09:43:48.158Z,3.43
2018-07-30T09:46:17.351Z,3.33
2018-07-30T09:48:46.388Z,2.80
2018-07-30T09:51:15.259Z,2.90
2018-07-30T09:53:44.150Z,3.20
2018-07-30T09:56:13.175Z,3.23
2018-07-30T09:58:42.120Z,3.93
2018-07-30T10:01:16.222Z,3.33
2018-07-30T10:03:45.132Z,3.10
2018-07-30T10:06:14.058Z,3.17
2018-07-30T10:08:42.944Z,2.93
2018-07-30T10:11:11.891Z,3.10
2018-07-30T10:13:40.935Z,3.07
2018-07-30T10:16:09.802Z,3.47
2018-07-30T10:18:38.877Z,3.30
2018-07-30T10:21:07.810Z,3.10
2018-07-30T10:23:36.988Z,2.97
2018-07-30T10:26:05.878Z,3.20
2018-07-30T10:28:34.857Z,2.80
2018-07-30T10:31:03.764Z,3.00
2018-07-30T10:33:32.686Z,2.73
2018-07-30T10:36:01.688Z,3.20
2018-07-30T10:38:30.629Z,3.07
2018-07-30T10:40:59.518Z,3.10
2018-07-30T10:43:28.619Z,3.00
2018-07-30T10:45:57.508Z,3.57
2018-07-30T10:48:26.435Z,2.90
2018-07-30T10:50:55.321Z,3.47
2018-07-30T10:53:24.313Z,4.07
2018-07-30T10:55:53.279Z,3.63
2018-07-30T10:58:22.208Z,3.40
2018-07-30T11:00:51.162Z,3.73
2018-07-30T11:03:20.155Z,3.70
2018-07-30T11:05:49.175Z,2.90
2018-07-30T11:08:18.100Z,3.60
2018-07-30T11:10:47.050Z,2.87
2018-07-30T11:13:15.877Z,3.13
2018-07-30T11:15:44.819Z,3.23
2018-07-30T11:18:13.808Z,2.97
2018-07-30T11:20:42.809Z,2.60
2018-07-30T11:23:11.790Z,3.67
2018-07-30T11:25:40.783Z,3.23
2018-07-30T11:28:09.773Z,3.23
2018-07-30T11:30:38.870Z,3.70
2018-07-30T11:33:07.805Z,4.07
2018-07-30T11:35:37.002Z,3.20
2018-07-30T11:38:05.942Z,3.57
2018-07-30T11:40:34.906Z,3.40
2018-07-30T11:43:03.891Z,2.80
2018-07-30T11:45:32.937Z,3.23
2018-07-30T11:48:01.931Z,3.17
2018-07-30T11:50:30.932Z,3.20
2018-07-30T11:52:59.921Z,3.60
2018-07-30T11:55:29.600Z,3.13
2018-07-30T11:57:58.783Z,3.27
2018-07-30T12:00:27.747Z,2.90
2018-07-30T12:02:56.707Z,3.23
2018-07-30T12:05:25.699Z,3.93
2018-07-30T12:07:54.689Z,3.50
2018-07-30T12:10:23.691Z,3.60
2018-07-30T12:12:52.664Z,3.00
2018-07-30T12:15:21.720Z,3.10
2018-07-30T12:17:50.614Z,2.87
2018-07-30T12:20:19.626Z,3.07
2018-07-30T12:22:48.543Z,2.77
2018-07-30T12:25:17.654Z,2.93
2018-07-30T12:27:46.615Z,2.53
2018-07-30T12:30:15.605Z,2.80
2018-07-30T12:32:44.467Z,2.97
2018-07-30T12:35:13.392Z,2.90
2018-07-30T12:37:42.304Z,2.00
2018-07-30T12:40:11.350Z,2.63
2018-07-30T12:42:40.297Z,3.23
2018-07-30T12:45:09.356Z,3.00
2018-07-30T12:47:38.216Z,3.10
2018-07-30T12:50:07.292Z,2.77
2018-07-30T12:52:36.174Z,3.10
2018-07-30T12:55:05.300Z,2.63
2018-07-30T12:57:34.182Z,3.23
2018-07-30T13:00:03.352Z,2.63
2018-07-30T13:02:32.197Z,2.50
2018-07-30T13:05:01.248Z,2.53
2018-07-30T13:07:30.162Z,2.27
2018-07-30T13:09:59.117Z,2.20
2018-07-30T13:12:28.008Z,2.17
2018-07-30T13:14:56.853Z,2.10
2018-07-30T13:17:25.797Z,2.07
2018-07-30T13:19:54.831Z,1.90
2018-07-30T13:22:23.723Z,2.00
2018-07-30T13:24:53.029Z,2.23
2018-07-30T13:27:21.912Z,2.07
2018-07-30T13:29:50.961Z,1.70
2018-07-30T13:32:19.949Z,1.70
2018-07-30T13:34:48.835Z,1.80
2018-07-30T13:37:17.931Z,1.73
2018-07-30T13:39:46.907Z,2.23
2018-07-30T13:42:15.827Z,2.40
2018-07-30T13:44:44.670Z,2.47
2018-07-30T13:47:13.709Z,2.27
2018-07-30T13:49:42.659Z,2.60
2018-07-30T13:52:11.594Z,1.83
2018-07-30T13:54:40.703Z,2.23
2018-07-30T13:57:09.632Z,2.27
2018-07-30T13:59:38.577Z,2.10
2018-07-30T14:02:07.526Z,2.33
2018-07-30T14:04:36.387Z,2.30
2018-07-30T14:07:05.371Z,2.10
2018-07-30T14:09:34.253Z,1.80
2018-07-30T14:12:03.245Z,2.00
2018-07-30T14:14:32.329Z,2.13
2018-07-30T14:17:01.183Z,1.77
2018-07-30T14:19:30.109Z,2.20
2018-07-30T14:21:59.133Z,1.77
2018-07-30T14:24:28.069Z,1.97
2018-07-30T14:26:56.992Z,2.13
2018-07-30T14:29:25.864Z,2.00
2018-07-30T14:31:54.856Z,1.93
2018-07-30T14:34:24.352Z,2.07
2018-07-30T14:36:53.374Z,2.10
2018-07-30T14:39:22.402Z,2.57
2018-07-30T14:41:51.412Z,2.70
2018-07-30T14:44:20.355Z,2.43
2018-07-30T14:46:49.372Z,2.17
2018-07-30T14:49:18.251Z,2.30
2018-07-30T14:51:47.136Z,1.87
2018-07-30T14:54:16.088Z,1.80
2018-07-30T14:56:44.975Z,1.97
2018-07-30T14:59:14.116Z,1.73
2018-07-30T15:01:42.966Z,2.10
2018-07-30T15:04:12.001Z,1.73
2018-07-30T15:06:40.976Z,1.93
2018-07-30T15:09:12.070Z,2.00
2018-07-30T15:11:40.979Z,1.77
2018-07-30T15:14:09.843Z,2.47
2018-07-30T15:16:38.815Z,2.10
2018-07-30T15:19:08.078Z,2.73
2018-07-30T15:21:37.300Z,2.20
2018-07-30T15:24:06.421Z,2.20
2018-07-30T15:26:35.339Z,2.00
2018-07-30T15:29:04.256Z,2.17
2018-07-30T15:31:33.143Z,2.20
2018-07-30T15:34:02.053Z,2.57
2018-07-30T15:36:30.972Z,2.40
2018-07-30T15:38:59.948Z,2.50
2018-07-30T15:41:28.868Z,2.30
2018-07-30T15:43:57.753Z,2.63
2018-07-30T15:46:26.619Z,2.23
2018-07-30T15:48:55.543Z,2.83
2018-07-30T15:51:24.517Z,1.90
2018-07-30T15:53:53.410Z,1.90
2018-07-30T15:56:22.292Z,2.03
2018-07-30T15:58:51.283Z,2.00
2018-07-30T16:01:20.286Z,2.40
2018-07-30T16:03:49.155Z,2.50
2018-07-30T16:06:18.063Z,2.33
2018-07-30T16:08:47.038Z,2.37
2018-07-30T16:11:15.919Z,2.30
2018-07-30T16:13:44.832Z,2.10
2018-07-30T16:16:13.923Z,2.40
2018-07-30T16:18:42.955Z,2.20
2018-07-30T16:21:11.830Z,2.33
2018-07-30T16:23:40.748Z,2.27
2018-07-30T16:26:09.780Z,2.30
2018-07-30T16:28:38.757Z,3.00
2018-07-30T16:31:07.648Z,1.97
2018-07-30T16:33:36.764Z,2.60
2018-07-30T16:36:05.804Z,2.10
2018-07-30T16:38:34.728Z,1.93
2018-07-30T16:41:03.733Z,2.20
2018-07-30T16:43:32.711Z,2.33
2018-07-30T16:46:01.608Z,2.33
2018-07-30T16:48:30.584Z,2.30
2018-07-30T16:50:59.484Z,2.30
2018-07-30T16:53:28.363Z,2.23
2018-07-30T16:55:57.344Z,2.00
2018-07-30T16:58:26.317Z,2.30
2018-07-30T17:00:55.305Z,1.77
2018-07-30T17:03:24.291Z,2.00
2018-07-30T17:05:53.503Z,2.10
2018-07-30T17:08:22.590Z,2.23
2018-07-30T17:10:51.446Z,2.03
2018-07-30T17:13:20.338Z,2.57
2018-07-30T17:15:49.600Z,2.50
2018-07-30T17:18:18.699Z,2.67
2018-07-30T17:20:48.289Z,2.60
2018-07-30T17:23:17.279Z,1.90
2018-07-30T17:25:46.257Z,2.03
2018-07-30T17:28:15.448Z,2.20
2018-07-30T17:30:44.449Z,2.20
2018-07-30T17:33:13.699Z,2.00
2018-07-30T17:35:43.041Z,2.30
2018-07-30T17:38:12.540Z,2.77
2018-07-30T17:40:41.458Z,2.77
2018-07-30T17:43:10.942Z,2.23
2018-07-30T17:45:39.947Z,2.60
2018-07-30T17:48:09.057Z,2.53
2018-07-30T17:50:38.138Z,2.67
2018-07-30T17:53:07.300Z,3.10
2018-07-30T17:55:36.525Z,2.60
2018-07-30T17:58:05.627Z,2.93
2018-07-30T18:00:34.713Z,2.63
2018-07-30T18:03:03.960Z,2.90
2018-07-30T18:05:33.015Z,2.87
2018-07-30T18:08:02.015Z,2.10
2018-07-30T18:10:30.963Z,2.10
2018-07-30T18:12:59.896Z,2.07
2018-07-30T18:15:28.992Z,1.67
2018-07-30T18:17:57.963Z,2.10
2018-07-30T18:20:26.960Z,2.83
2018-07-30T18:22:55.961Z,2.27
2018-07-30T18:25:26.129Z,2.57
2018-07-30T18:27:55.112Z,1.90
2018-07-30T18:30:24.126Z,2.37
2018-07-30T18:32:53.163Z,1.90
2018-07-30T18:35:22.140Z,2.03
2018-07-30T18:37:51.168Z,2.30
2018-07-30T18:40:20.249Z,2.23
2018-07-30T18:42:49.202Z,2.03
2018-07-30T18:45:18.123Z,2.10
2018-07-30T18:47:47.136Z,2.80
2018-07-30T18:50:16.001Z,2.00
2018-07-30T18:52:45.056Z,2.10
2018-07-30T18:55:14.126Z,2.50
2018-07-30T18:57:43.096Z,2.07
2018-07-30T19:00:12.216Z,1.80
2018-07-30T19:02:41.079Z,2.17
2018-07-30T19:05:10.220Z,1.83
2018-07-30T19:07:40.551Z,2.40
2018-07-30T19:10:09.598Z,2.10
2018-07-30T19:12:38.502Z,2.03
2018-07-30T19:15:08.051Z,2.00
2018-07-30T19:17:37.126Z,2.20
2018-07-30T19:20:06.092Z,2.00
2018-07-30T19:22:35.386Z,2.10
2018-07-30T19:25:04.890Z,1.90
2018-07-30T19:27:34.251Z,1.97
2018-07-30T19:30:03.598Z,1.80
2018-07-30T19:32:32.502Z,1.60
2018-07-30T19:35:01.369Z,1.97
2018-07-30T19:37:30.407Z,1.80
2018-07-30T19:40:00.104Z,1.90
2018-07-30T19:42:29.604Z,2.17
2018-07-30T19:45:01.256Z,2.13
2018-07-30T19:47:30.278Z,2.13
2018-07-30T19:49:59.640Z,1.63
2018-07-30T19:52:29.016Z,2.17
2018-07-30T19:54:57.924Z,1.93
2018-07-30T19:57:27.229Z,1.63
2018-07-30T19:59:56.131Z,2.00
2018-07-30T20:02:25.384Z,1.90
2018-07-30T20:04:54.302Z,2.10
2018-07-30T20:07:23.517Z,1.90
2018-07-30T20:09:52.511Z,1.70
2018-07-30T20:12:21.758Z,1.80
2018-07-30T20:14:51.106Z,2.07
2018-07-30T20:17:20.118Z,1.60
2018-07-30T20:19:49.461Z,2.17
2018-07-30T20:22:18.802Z,2.17
2018-07-30T20:24:48.085Z,2.30
2018-07-30T20:27:16.960Z,2.20
2018-07-30T20:29:46.298Z,2.80
2018-07-30T20:32:15.598Z,2.03
2018-07-30T20:34:44.512Z,2.33
2018-07-30T20:37:13.479Z,2.10
2018-07-30T20:39:42.489Z,2.20
2018-07-30T20:42:11.502Z,2.20
2018-07-30T20:44:40.369Z,2.10
2018-07-30T20:47:09.356Z,2.30
2018-07-30T20:49:38.254Z,2.40
2018-07-30T20:52:07.288Z,2.40
2018-07-30T20:54:36.167Z,1.83
2018-07-30T20:57:05.067Z,1.80
2018-07-30T20:59:33.946Z,2.43
2018-07-30T21:02:03.820Z,2.60
2018-07-30T21:04:32.773Z,2.47
2018-07-30T21:07:01.603Z,2.63
2018-07-30T21:09:30.587Z,2.20
2018-07-30T21:11:59.477Z,2.30
2018-07-30T21:14:28.358Z,2.60
2018-07-30T21:16:57.250Z,2.20
2018-07-30T21:19:26.182Z,2.50
2018-07-30T21:21:55.182Z,2.50
2018-07-30T21:24:24.570Z,3.03
2018-07-30T21:26:53.716Z,1.80
2018-07-30T21:29:22.738Z,2.63
2018-07-30T21:31:51.615Z,2.10
2018-07-30T21:34:20.578Z,2.33
2018-07-30T21:36:49.575Z,2.60
2018-07-30T21:39:18.425Z,2.80
2018-07-30T21:41:47.346Z,2.43
2018-07-30T21:44:16.238Z,2.43
2018-07-30T21:46:45.167Z,2.50
2018-07-30T21:49:14.081Z,2.50
2018-07-30T21:51:42.958Z,1.97
2018-07-30T21:54:11.939Z,1.93
2018-07-30T21:56:40.745Z,1.83
2018-07-30T21:59:09.651Z,1.80
2018-07-30T22:01:39.404Z,1.90
2018-07-30T22:04:08.327Z,2.23
2018-07-30T22:06:37.345Z,2.40
2018-07-30T22:09:08.283Z,1.80
2018-07-30T22:11:37.326Z,2.07
2018-07-30T22:14:06.629Z,2.20
2018-07-30T22:16:35.522Z,1.90
2018-07-30T22:19:04.385Z,2.13
2018-07-30T22:21:33.245Z,1.93
2018-07-30T22:24:03.157Z,2.40
2018-07-30T22:26:32.002Z,3.20
2018-07-30T22:29:00.953Z,2.93
2018-07-30T22:31:29.827Z,2.80
2018-07-30T22:33:58.751Z,2.70
2018-07-30T22:36:27.726Z,2.77
2018-07-30T22:38:56.626Z,2.93
2018-07-30T22:41:25.506Z,2.23
2018-07-30T22:43:54.394Z,2.90
2018-07-30T22:46:23.312Z,1.83
2018-07-30T22:48:52.178Z,2.60
2018-07-30T22:51:21.094Z,2.53
2018-07-30T22:53:50.092Z,2.33
2018-07-30T22:56:19.050Z,1.87
2018-07-30T22:58:47.938Z,2.77
2018-07-30T23:01:16.862Z,2.20
2018-07-30T23:03:45.820Z,1.90
2018-07-30T23:06:14.866Z,2.60
2018-07-30T23:08:43.764Z,2.07
2018-07-30T23:11:12.710Z,2.27
2018-07-30T23:13:41.610Z,2.30
2018-07-30T23:16:10.638Z,1.70
2018-07-30T23:18:39.434Z,2.10
2018-07-30T23:21:08.396Z,2.37
2018-07-30T23:23:37.368Z,2.37
2018-07-30T23:26:06.370Z,2.80
2018-07-30T23:28:35.250Z,3.00
2018-07-30T23:31:04.184Z,2.50
2018-07-30T23:33:33.259Z,2.30
2018-07-30T23:36:02.176Z,2.93
2018-07-30T23:38:31.113Z,2.50
2018-07-30T23:41:00.115Z,2.27
2018-07-30T23:43:29.004Z,2.50
2018-07-30T23:45:57.910Z,2.87
2018-07-30T23:48:26.894Z,2.50
2018-07-30T23:50:55.888Z,2.50
2018-07-30T23:53:24.742Z,2.90
2018-07-30T23:55:53.638Z,2.33
2018-07-30T23:58:22.578Z,2.13
